Time;durP1;ratioP1;P1;durP2;ratioP2;P2;SDS_P1;SDS_P2;PMS_P1;PMS_P2;Temp;Humidity;BMP_temperature;BMP_pressure;BME280_temperature;BME280_humidity;BME280_pressure;Samples;Min_cycle;Max_cycle;Signal;HPM_P1;HPM_P2
2022/07/04 00:02:20;;;;;;;;;;;;;;;28.15;38.78;100935.61;105123;1302;61396;-81
2022/07/04 00:04:46;;;;;;;;;;;;;;;28.15;38.58;100938.52;105103;1302;61429;-81
2022/07/04 00:07:11;;;;;;;;;;;;;;;28.15;38.78;100936.72;105144;1303;61262;-81
2022/07/04 00:09:37;;;;;;;;;;;;;;;28.15;38.75;100933.65;105181;1302;61389;-81
2022/07/04 00:12:02;;;;;;;;;;;;;;;28.14;38.55;100935.69;105231;1303;61252;-81
2022/07/04 00:14:28;;;;;;;;;;;;;;;28.15;38.78;100934.38;105129;1302;61269;-81
2022/07/04 00:16:53;;;;;;;;;;;;;;;28.15;38.82;100933.30;105261;1303;61351;-81
2022/07/04 00:19:19;;;;;;;;;;;;;;;28.14;38.69;100929.02;105154;1302;59799;-81
2022/07/04 00:21:45;;;;;;;;;;;;;;;28.14;38.55;100926.66;105176;1301;61422;-81
2022/07/04 00:24:11;;;;;;;;;;;;;;;28.14;38.57;100927.25;105150;1302;74133;-81
2022/07/04 00:26:36;;;;;;;;;;;;;;;28.14;38.55;100921.27;105220;1302;61275;-81
2022/07/04 00:29:02;;;;;;;;;;;;;;;28.14;38.60;100918.94;105122;1303;61346;-81
2022/07/04 00:31:27;;;;;;;;;;;;;;;28.14;38.66;100915.13;105160;1303;61296;-81
2022/07/04 00:33:53;;;;;;;;;;;;;;;28.13;38.63;100913.92;105246;1302;61229;-81
2022/07/04 00:36:19;;;;;;;;;;;;;;;28.13;38.53;100916.83;105150;1303;72874;-81
2022/07/04 00:38:45;;;;;;;;;;;;;;;28.13;38.52;100916.45;105135;1302;61359;-81
2022/07/04 00:41:10;;;;;;;;;;;;;;;28.13;38.61;100916.12;105131;1303;61320;-81
2022/07/04 00:43:36;;;;;;;;;;;;;;;28.13;38.45;100917.23;105135;1302;61498;-81
2022/07/04 00:46:05;;;;;;;;;;;;;;;28.13;38.70;100916.15;105168;1303;61271;-81
2022/07/04 00:48:31;;;;;;;;;;;;;;;28.12;38.56;100914.18;105271;1301;72603;-81
2022/07/04 00:50:56;;;;;;;;;;;;;;;28.13;38.39;100913.05;105191;1303;61269;-81
2022/07/04 00:53:25;;;;;;;;;;;;;;;28.13;38.61;100913.80;105149;1303;61263;-81
2022/07/04 00:55:51;;;;;;;;;;;;;;;28.13;38.54;100915.43;105115;1302;61243;-81
2022/07/04 00:58:23;;;;;;;;;;;;;;;28.12;38.42;100912.81;105126;1303;72856;-81
2022/07/04 01:00:49;;;;;;;;;;;;;;;28.12;38.50;100919.45;105167;1302;61393;-81
2022/07/04 01:03:15;;;;;;;;;;;;;;;28.12;38.31;100921.43;105125;1302;61301;-81
2022/07/04 01:05:40;;;;;;;;;;;;;;;28.12;38.46;100921.60;105137;1303;61304;-81
2022/07/04 01:08:06;;;;;;;;;;;;;;;28.12;38.37;100917.86;105098;1303;61233;-81
2022/07/04 01:10:31;;;;;;;;;;;;;;;28.12;38.33;100918.58;105267;1303;61368;-81
2022/07/04 01:12:57;;;;;;;;;;;;;;;28.12;38.34;100923.11;105131;1301;75923;-81
2022/07/04 01:15:22;;;;;;;;;;;;;;;28.12;38.21;100922.60;105225;1301;61282;-81
2022/07/04 01:17:48;;;;;;;;;;;;;;;28.11;38.29;100924.81;104894;1303;61329;-81
2022/07/04 01:20:13;;;;;;;;;;;;;;;28.11;38.21;100926.80;105149;1303;61518;-81
2022/07/04 01:22:39;;;;;;;;;;;;;;;28.11;38.15;100924.47;105139;1302;61294;-81
2022/07/04 01:25:05;;;;;;;;;;;;;;;28.11;38.24;100923.89;105118;1301;75789;-81
2022/07/04 01:27:30;;;;;;;;;;;;;;;28.11;38.35;100921.08;105238;1303;61243;-81
2022/07/04 01:29:56;;;;;;;;;;;;;;;28.11;38.23;100920.70;105129;1301;61406;-81
2022/07/04 01:32:21;;;;;;;;;;;;;;;28.10;38.37;100920.73;105191;1302;61236;-81
2022/07/04 01:34:48;;;;;;;;;;;;;;;28.10;38.29;100920.52;105132;1302;61365;-81
2022/07/04 01:37:13;;;;;;;;;;;;;;;28.09;38.18;100922.05;105125;1303;74874;-81
2022/07/04 01:39:39;;;;;;;;;;;;;;;28.10;38.23;100919.33;105144;1301;61326;-81
2022/07/04 01:42:06;;;;;;;;;;;;;;;28.10;38.52;100916.55;105125;1302;61325;-81
2022/07/04 01:44:31;;;;;;;;;;;;;;;28.09;38.19;100916.79;105118;1303;61253;-81
2022/07/04 01:46:56;;;;;;;;;;;;;;;28.09;38.17;100915.89;105210;1301;61345;-81
2022/07/04 01:49:22;;;;;;;;;;;;;;;28.09;38.21;100918.30;105151;1303;61362;-81
2022/07/04 01:51:48;;;;;;;;;;;;;;;28.08;38.25;100922.31;105217;1303;61901;-81
2022/07/04 01:54:13;;;;;;;;;;;;;;;28.09;38.14;100926.07;105125;1303;61326;-81
2022/07/04 01:56:39;;;;;;;;;;;;;;;28.09;38.17;100931.13;104893;1301;61849;-81
2022/07/04 01:59:05;;;;;;;;;;;;;;;28.09;38.17;100931.70;105077;1301;61276;-81
2022/07/04 02:01:30;;;;;;;;;;;;;;;28.09;38.17;100932.21;105133;1302;61244;-81
2022/07/04 02:03:56;;;;;;;;;;;;;;;28.08;38.22;100936.78;105155;1303;61262;-81
2022/07/04 02:06:22;;;;;;;;;;;;;;;28.09;38.11;100935.88;105154;1303;62613;-81
2022/07/04 02:13:00;;;;;;;;;;;;;;;28.08;38.17;100935.41;105137;1303;74295;-81
2022/07/04 02:14:17;;;;;;;;;;;;;;;28.08;38.30;100931.94;105252;1303;61147;-81
2022/07/04 02:16:42;;;;;;;;;;;;;;;28.08;38.33;100939.20;105143;1303;61294;-81
2022/07/04 02:19:08;;;;;;;;;;;;;;;28.08;38.01;100937.53;105226;1302;61246;-81
2022/07/04 02:21:33;;;;;;;;;;;;;;;28.08;38.04;100937.39;105242;1303;61361;-81
2022/07/04 02:23:59;;;;;;;;;;;;;;;28.08;38.01;100938.62;105194;1303;61297;-81
2022/07/04 02:26:24;;;;;;;;;;;;;;;28.08;37.97;100943.91;105165;1303;61343;-81
2022/07/04 02:28:51;;;;;;;;;;;;;;;28.08;38.01;100949.71;105168;1302;61310;-81
2022/07/04 02:31:16;;;;;;;;;;;;;;;28.08;38.15;100951.34;105139;1302;61989;-81
2022/07/04 02:33:41;;;;;;;;;;;;;;;28.08;38.17;100953.34;105144;1303;61844;-81
2022/07/04 02:36:09;;;;;;;;;;;;;;;28.08;38.33;100959.14;105211;1301;61281;-81
2022/07/04 02:38:34;;;;;;;;;;;;;;;28.07;38.15;100962.08;105125;1302;61385;-81
2022/07/04 02:41:00;;;;;;;;;;;;;;;28.07;38.03;100964.05;105188;1303;61234;-81
2022/07/04 02:43:25;;;;;;;;;;;;;;;28.07;38.01;100965.34;105236;1302;61287;-81
2022/07/04 02:45:50;;;;;;;;;;;;;;;28.07;37.97;100964.45;105123;1303;61238;-81
2022/07/04 02:48:16;;;;;;;;;;;;;;;28.07;38.32;100965.20;105126;1303;61290;-81
2022/07/04 02:50:41;;;;;;;;;;;;;;;28.07;38.11;100960.31;105130;1301;61393;-81
2022/07/04 02:53:07;;;;;;;;;;;;;;;28.07;38.06;100961.91;105142;1301;61354;-81
2022/07/04 02:55:32;;;;;;;;;;;;;;;28.08;38.26;100965.86;105273;1302;61368;-81
2022/07/04 02:57:58;;;;;;;;;;;;;;;28.07;38.16;100961.73;104869;1303;61399;-81
2022/07/04 03:00:23;;;;;;;;;;;;;;;28.07;38.30;100963.70;104913;1303;61281;-81
2022/07/04 03:02:49;;;;;;;;;;;;;;;28.07;38.03;100970.40;105227;1301;61377;-81
2022/07/04 03:05:14;;;;;;;;;;;;;;;28.07;38.07;100972.27;105224;1301;61951;-81
2022/07/04 03:07:40;;;;;;;;;;;;;;;28.07;38.07;100971.14;105174;1301;61412;-81
2022/07/04 03:10:06;;;;;;;;;;;;;;;28.07;38.19;100971.11;105145;1303;75635;-81
2022/07/04 03:12:33;;;;;;;;;;;;;;;28.06;37.88;100972.80;105156;1302;61450;-81
2022/07/04 03:14:59;;;;;;;;;;;;;;;28.07;38.17;100974.74;105205;1303;61240;-81
2022/07/04 03:17:25;;;;;;;;;;;;;;;28.07;37.93;100976.20;105163;1301;61352;-81
2022/07/04 03:19:50;;;;;;;;;;;;;;;28.07;37.81;100976.16;105156;1303;61382;-81
2022/07/04 03:22:16;;;;;;;;;;;;;;;28.07;38.03;100971.45;105262;1301;61962;-81
2022/07/04 03:24:42;;;;;;;;;;;;;;;28.08;38.12;100971.45;105150;1303;61220;-81
2022/07/04 03:27:07;;;;;;;;;;;;;;;28.08;37.84;100973.95;105185;1303;61269;-81
2022/07/04 03:29:33;;;;;;;;;;;;;;;28.08;37.91;100975.42;105212;1301;72796;-81
2022/07/04 03:31:58;;;;;;;;;;;;;;;28.08;37.97;100974.34;105199;1302;61213;-81
2022/07/04 03:34:24;;;;;;;;;;;;;;;28.08;38.18;100977.21;105238;1301;61259;-81
2022/07/04 03:36:49;;;;;;;;;;;;;;;28.08;37.98;100977.26;105152;1301;61233;-81
2022/07/04 03:39:15;;;;;;;;;;;;;;;28.08;37.98;100972.88;105152;1302;61250;-81
2022/07/04 03:41:40;;;;;;;;;;;;;;;28.08;37.99;100971.04;105130;1301;73847;-81
2022/07/04 03:44:06;;;;;;;;;;;;;;;28.08;37.91;100975.19;105235;1302;61260;-81
2022/07/04 03:46:32;;;;;;;;;;;;;;;28.08;38.01;100970.16;105253;1302;61191;-83
2022/07/04 03:48:57;;;;;;;;;;;;;;;28.08;38.11;100971.41;105158;1301;61387;-83
2022/07/04 03:51:24;;;;;;;;;;;;;;;28.08;37.95;100975.22;104953;1302;61297;-84
2022/07/04 03:53:49;;;;;;;;;;;;;;;28.07;37.88;100973.27;104891;1303;61463;-81
2022/07/04 03:56:15;;;;;;;;;;;;;;;28.08;37.88;100971.79;105152;1302;61334;-81
2022/07/04 03:58:48;;;;;;;;;;;;;;;28.08;37.94;100970.33;105158;1303;61294;-81
2022/07/04 04:01:14;;;;;;;;;;;;;;;28.07;38.01;100968.55;105228;1301;61496;-81
2022/07/04 04:06:24;;;;;;;;;;;;;;;28.08;38.04;100966.73;105263;1303;75628;-81
2022/07/04 04:08:49;;;;;;;;;;;;;;;28.07;37.94;100967.65;105152;1303;61264;-81
2022/07/04 04:11:15;;;;;;;;;;;;;;;28.07;37.98;100965.17;105153;1302;61422;-81
2022/07/04 04:13:41;;;;;;;;;;;;;;;28.07;38.05;100964.45;105181;1301;61294;-81
2022/07/04 04:16:06;;;;;;;;;;;;;;;28.06;38.07;100965.41;105113;1303;61288;-82
2022/07/04 04:18:32;;;;;;;;;;;;;;;28.07;37.99;100967.34;105076;1303;74971;-85
2022/07/04 04:20:57;;;;;;;;;;;;;;;28.06;37.95;100968.30;104892;1303;62077;-82
2022/07/04 04:23:23;;;;;;;;;;;;;;;28.06;37.92;100970.65;105095;1303;61367;-81
2022/07/04 04:25:48;;;;;;;;;;;;;;;28.06;37.93;100971.37;105100;1303;61294;-81
2022/07/04 04:28:14;;;;;;;;;;;;;;;28.06;37.81;100973.00;105138;1302;61244;-81
2022/07/04 04:30:40;;;;;;;;;;;;;;;28.06;37.93;100975.38;105117;1301;74896;-81
2022/07/04 04:33:07;;;;;;;;;;;;;;;28.06;37.93;100976.32;105102;1303;61948;-81
2022/07/04 04:35:34;;;;;;;;;;;;;;;28.06;38.28;100978.46;105215;1301;61271;-81
2022/07/04 04:38:01;;;;;;;;;;;;;;;28.06;37.97;100976.80;105135;1303;61285;-81
2022/07/04 04:40:26;;;;;;;;;;;;;;;28.07;37.90;100976.80;105112;1302;61225;-81
2022/07/04 04:42:52;;;;;;;;;;;;;;;28.06;37.93;100979.73;105151;1303;61364;-81
2022/07/04 04:45:17;;;;;;;;;;;;;;;28.07;38.15;100977.48;105161;1302;61314;-81
2022/07/04 04:47:43;;;;;;;;;;;;;;;28.07;38.02;100976.73;105199;1301;61342;-81
2022/07/04 04:50:11;;;;;;;;;;;;;;;28.08;37.81;100973.56;105163;1302;72936;-83
2022/07/04 04:52:37;;;;;;;;;;;;;;;28.08;38.02;100971.19;105100;1303;75749;-82
2022/07/04 04:55:03;;;;;;;;;;;;;;;28.10;37.85;100971.27;105120;1302;61267;-82
2022/07/04 04:57:29;;;;;;;;;;;;;;;28.10;37.94;100972.45;104893;1302;61374;-82
2022/07/04 04:59:54;;;;;;;;;;;;;;;28.11;37.75;100971.84;105157;1303;61235;-81
2022/07/04 05:02:19;;;;;;;;;;;;;;;28.12;38.04;100966.52;105119;1303;61277;-82
2022/07/04 05:04:46;;;;;;;;;;;;;;;28.13;37.83;100971.64;105152;1302;61285;-82
2022/07/04 05:07:11;;;;;;;;;;;;;;;28.14;37.93;100966.91;105138;1302;61300;-82
2022/07/04 05:09:36;;;;;;;;;;;;;;;28.14;38.10;100963.75;105291;1302;61824;-82
2022/07/04 05:12:02;;;;;;;;;;;;;;;28.15;37.92;100964.75;104890;1303;61342;-82
2022/07/04 05:14:28;;;;;;;;;;;;;;;28.17;37.82;100972.02;105171;1303;61387;-82
2022/07/04 05:16:54;;;;;;;;;;;;;;;28.17;37.83;100972.68;105211;1302;61711;-82
2022/07/04 05:19:19;;;;;;;;;;;;;;;28.18;37.91;100970.45;105188;1302;61270;-82
2022/07/04 05:21:45;;;;;;;;;;;;;;;28.19;37.79;100971.10;105122;1302;61166;-82
2022/07/04 05:24:11;;;;;;;;;;;;;;;28.19;37.79;100971.23;105236;1301;61270;-82
2022/07/04 05:26:37;;;;;;;;;;;;;;;28.20;37.70;100972.78;105175;1302;61381;-81
2022/07/04 05:29:02;;;;;;;;;;;;;;;28.20;37.67;100974.89;105217;1301;61337;-82
2022/07/04 05:31:28;;;;;;;;;;;;;;;28.21;38.01;100974.99;105181;1301;61509;-82
2022/07/04 05:33:56;;;;;;;;;;;;;;;28.22;37.77;100977.07;105138;1301;61254;-82
2022/07/04 05:36:22;;;;;;;;;;;;;;;28.23;37.72;100975.89;105052;1302;72781;-82
2022/07/04 05:38:48;;;;;;;;;;;;;;;28.24;37.52;100979.95;105012;1303;61272;-82
2022/07/04 05:41:13;;;;;;;;;;;;;;;28.24;37.67;100982.79;105096;1303;61246;-82
2022/07/04 05:43:39;;;;;;;;;;;;;;;28.25;37.59;100987.45;105135;1302;61310;-81
2022/07/04 05:46:04;;;;;;;;;;;;;;;28.25;37.62;100986.02;105188;1301;61333;-81
2022/07/04 05:48:29;;;;;;;;;;;;;;;28.25;37.48;100991.08;105110;1303;72912;-81
2022/07/04 05:50:55;;;;;;;;;;;;;;;28.25;37.55;100988.88;105134;1302;61294;-81
2022/07/04 05:53:20;;;;;;;;;;;;;;;28.25;37.43;100991.05;105059;1301;61260;-81
2022/07/04 05:55:46;;;;;;;;;;;;;;;28.25;37.36;100994.68;105244;1302;61259;-81
2022/07/04 05:58:11;;;;;;;;;;;;;;;28.25;37.41;100995.60;105177;1303;61406;-82
2022/07/04 06:00:39;;;;;;;;;;;;;;;28.25;37.39;100994.84;105111;1301;61253;-82
2022/07/04 06:03:05;;;;;;;;;;;;;;;28.25;37.22;100993.25;105046;1301;75716;-82
2022/07/04 06:05:31;;;;;;;;;;;;;;;28.25;37.28;100997.05;104969;1301;61214;-81
2022/07/04 06:07:56;;;;;;;;;;;;;;;28.25;37.31;100999.02;105121;1301;61740;-81
2022/07/04 06:10:22;;;;;;;;;;;;;;;28.24;37.04;100998.20;105167;1302;61232;-81
2022/07/04 06:12:47;;;;;;;;;;;;;;;28.24;37.20;100997.52;104937;1302;61345;-81
2022/07/04 06:15:12;;;;;;;;;;;;;;;28.24;37.48;100997.90;104949;1302;61529;-82
2022/07/04 06:17:38;;;;;;;;;;;;;;;28.24;37.01;100994.98;105107;1302;61304;-82
2022/07/04 06:20:04;;;;;;;;;;;;;;;28.24;37.23;100992.06;105367;1301;60501;-81
2022/07/04 06:22:40;;;;;;;;;;;;;;;28.25;36.87;100987.79;105415;1302;61285;-82
2022/07/04 06:25:05;;;;;;;;;;;;;;;28.26;37.09;100985.21;105369;1302;74673;-82
2022/07/04 06:27:31;;;;;;;;;;;;;;;28.27;36.84;100981.34;104985;1300;452556;-82
2022/07/04 06:29:56;;;;;;;;;;;;;;;28.27;37.14;100981.64;105239;1302;61266;-82
2022/07/04 06:32:21;;;;;;;;;;;;;;;28.28;36.91;100983.55;105124;1302;63115;-82
2022/07/04 06:37:31;;;;;;;;;;;;;;;28.30;36.98;100982.58;104916;1302;75670;-82
2022/07/04 06:39:56;;;;;;;;;;;;;;;28.32;36.87;100979.77;105038;1302;61248;-83
2022/07/04 06:42:22;;;;;;;;;;;;;;;28.32;36.57;100979.91;105067;1302;61292;-84
2022/07/04 06:44:47;;;;;;;;;;;;;;;28.32;36.52;100981.14;104715;1303;61298;-83
2022/07/04 06:47:13;;;;;;;;;;;;;;;28.33;36.45;100981.83;105013;1303;61479;-83
2022/07/04 06:49:38;;;;;;;;;;;;;;;28.33;36.33;100984.89;105048;1303;61438;-83
2022/07/04 06:52:04;;;;;;;;;;;;;;;28.33;36.48;100985.63;104870;1302;61368;-81
2022/07/04 06:54:29;;;;;;;;;;;;;;;28.32;36.09;100987.52;104939;1302;61287;-82
2022/07/04 06:56:55;;;;;;;;;;;;;;;28.32;36.31;100986.74;104804;1302;61285;-81
2022/07/04 06:59:20;;;;;;;;;;;;;;;28.32;36.05;100982.41;105052;1300;61261;-81
2022/07/04 07:01:46;;;;;;;;;;;;;;;28.33;36.25;100981.26;105036;1300;61378;-81
2022/07/04 07:04:11;;;;;;;;;;;;;;;28.34;36.26;100981.91;104883;1300;61241;-81
2022/07/04 07:06:36;;;;;;;;;;;;;;;28.34;36.01;100977.16;104916;1302;61261;-82
2022/07/04 07:09:03;;;;;;;;;;;;;;;28.35;36.09;100970.52;104943;1302;59711;-81
2022/07/04 07:11:29;;;;;;;;;;;;;;;28.35;35.99;100971.61;104700;1302;61212;-81
2022/07/04 07:13:54;;;;;;;;;;;;;;;28.36;36.19;100968.09;104881;1302;61388;-81
2022/07/04 07:16:20;;;;;;;;;;;;;;;28.37;35.93;100970.48;105011;1303;61284;-82
2022/07/04 07:18:45;;;;;;;;;;;;;;;28.39;35.91;100965.09;105025;1301;61242;-82
2022/07/04 07:21:11;;;;;;;;;;;;;;;28.39;36.10;100969.92;104992;1302;61300;-81
2022/07/04 07:23:37;;;;;;;;;;;;;;;28.40;36.02;100969.66;104809;1303;61438;-81
2022/07/04 07:26:03;;;;;;;;;;;;;;;28.41;36.15;100969.02;104815;1302;59410;-81
2022/07/04 07:28:28;;;;;;;;;;;;;;;28.42;36.08;100967.09;105089;1302;61240;-81
2022/07/04 07:30:54;;;;;;;;;;;;;;;28.43;35.89;100968.70;104894;1302;61274;-81
2022/07/04 07:33:19;;;;;;;;;;;;;;;28.43;36.06;100965.75;105059;1301;61249;-81
2022/07/04 07:35:45;;;;;;;;;;;;;;;28.44;35.86;100966.41;104847;1302;61281;-81
2022/07/04 07:38:10;;;;;;;;;;;;;;;28.43;35.72;100963.34;105006;1302;61426;-81
2022/07/04 07:40:35;;;;;;;;;;;;;;;28.44;35.81;100962.74;105211;1302;61269;-81
2022/07/04 07:43:01;;;;;;;;;;;;;;;28.44;35.72;100959.69;104921;1302;61375;-81
2022/07/04 07:45:26;;;;;;;;;;;;;;;28.44;35.77;100958.64;104911;1302;61293;-81
2022/07/04 07:47:52;;;;;;;;;;;;;;;28.44;35.60;100958.40;105107;1302;61265;-81
2022/07/04 07:50:17;;;;;;;;;;;;;;;28.44;35.69;100961.52;104857;1302;61244;-81
2022/07/04 07:52:43;;;;;;;;;;;;;;;28.43;35.63;100964.13;105007;1302;61306;-82
2022/07/04 07:55:08;;;;;;;;;;;;;;;28.43;35.52;100964.69;104983;1303;61387;-82
2022/07/04 07:57:34;;;;;;;;;;;;;;;28.43;35.44;100964.86;104847;1302;61272;-81
2022/07/04 07:59:59;;;;;;;;;;;;;;;28.42;35.57;100962.03;104889;1303;61374;-81
2022/07/04 08:05:09;;;;;;;;;;;;;;;28.42;35.48;100963.80;104858;1302;61453;-82
2022/07/04 08:07:34;;;;;;;;;;;;;;;28.43;35.49;100964.14;105088;1302;61364;-82
2022/07/04 08:09:59;;;;;;;;;;;;;;;28.43;35.55;100964.31;105019;1303;61750;-81
2022/07/04 08:12:25;;;;;;;;;;;;;;;28.43;35.45;100959.98;105180;1302;61972;-81
2022/07/04 08:14:50;;;;;;;;;;;;;;;28.43;35.25;100959.94;105179;1300;61272;-81
2022/07/04 08:17:16;;;;;;;;;;;;;;;28.43;35.29;100961.73;105034;1302;61284;-82
2022/07/04 08:19:41;;;;;;;;;;;;;;;28.43;35.24;100957.42;104875;1302;61325;-82
2022/07/04 08:22:07;;;;;;;;;;;;;;;28.42;35.30;100956.23;105056;1301;61287;-82
2022/07/04 08:24:33;;;;;;;;;;;;;;;28.42;35.12;100953.39;104881;1302;61292;-81
2022/07/04 08:26:58;;;;;;;;;;;;;;;28.41;35.46;100958.34;105219;1302;61281;-81
2022/07/04 08:29:23;;;;;;;;;;;;;;;28.41;35.30;100954.17;105085;1301;61265;-81
2022/07/04 08:31:49;;;;;;;;;;;;;;;28.41;35.11;100953.24;105175;1302;61447;-81
2022/07/04 08:34:15;;;;;;;;;;;;;;;28.42;35.46;100953.55;105022;1301;61275;-81
2022/07/04 08:36:41;;;;;;;;;;;;;;;28.42;35.14;100949.17;105128;1302;61258;-81
2022/07/04 08:39:07;;;;;;;;;;;;;;;28.43;35.33;100952.15;104897;1302;61275;-81
2022/07/04 08:41:34;;;;;;;;;;;;;;;28.43;35.26;100949.83;104921;1302;61296;-82
2022/07/04 08:43:59;;;;;;;;;;;;;;;28.45;34.95;100950.59;105131;1302;61170;-81
2022/07/04 08:46:25;;;;;;;;;;;;;;;28.45;35.11;100948.76;105179;1301;61934;-82
2022/07/04 08:48:52;;;;;;;;;;;;;;;28.45;35.15;100950.15;105121;1302;61283;-82
2022/07/04 08:51:41;;;;;;;;;;;;;;;28.45;35.16;100944.76;105074;1302;61246;-82
2022/07/04 08:58:25;;;;;;;;;;;;;;;28.46;35.17;100950.30;105079;1301;73087;-81
2022/07/04 08:59:36;;;;;;;;;;;;;;;28.48;35.15;100951.71;105101;1302;61245;-83
2022/07/04 09:02:02;;;;;;;;;;;;;;;28.49;35.30;100946.76;105084;1303;61291;-82
2022/07/04 09:04:27;;;;;;;;;;;;;;;28.49;35.14;100943.30;105116;1302;61361;-81
2022/07/04 09:06:53;;;;;;;;;;;;;;;28.49;34.87;100940.67;104891;1302;61245;-82
2022/07/04 09:09:18;;;;;;;;;;;;;;;28.49;35.10;100939.05;105020;1302;61265;-82
2022/07/04 09:11:45;;;;;;;;;;;;;;;28.50;35.25;100933.05;105147;1302;61294;-81
2022/07/04 09:14:10;;;;;;;;;;;;;;;28.50;35.16;100929.96;104991;1302;61469;-81
2022/07/04 09:16:36;;;;;;;;;;;;;;;28.51;35.13;100926.45;105127;1302;61273;-82
2022/07/04 09:19:01;;;;;;;;;;;;;;;28.51;35.00;100926.05;105130;1302;61353;-82
2022/07/04 09:21:44;;;;;;;;;;;;;;;28.51;35.35;100923.86;105009;1302;61265;-82
2022/07/04 09:24:09;;;;;;;;;;;;;;;28.51;35.26;100922.06;104931;1302;61287;-82
2022/07/04 09:26:35;;;;;;;;;;;;;;;28.51;35.44;100920.45;105021;1301;61317;-82
2022/07/04 09:29:00;;;;;;;;;;;;;;;28.51;35.39;100915.52;104778;1303;63119;-82
2022/07/04 09:31:27;;;;;;;;;;;;;;;28.52;35.13;100915.96;104875;1303;61280;-82
2022/07/04 09:33:53;;;;;;;;;;;;;;;28.53;35.38;100910.48;104960;1303;61140;-81
2022/07/04 09:36:20;;;;;;;;;;;;;;;28.54;35.45;100909.95;105146;1301;61188;-82
2022/07/04 09:38:46;;;;;;;;;;;;;;;28.55;35.37;100907.67;104898;1300;61214;-82
2022/07/04 09:41:29;;;;;;;;;;;;;;;28.56;35.15;100909.27;105046;1299;61251;-82
2022/07/04 09:43:59;;;;;;;;;;;;;;;28.57;35.07;100909.49;105047;1302;61348;-82
2022/07/04 09:46:24;;;;;;;;;;;;;;;28.57;35.38;100908.78;105049;1302;61307;-82
2022/07/04 09:48:50;;;;;;;;;;;;;;;28.57;35.29;100905.50;104992;1303;61406;-82
2022/07/04 09:51:19;;;;;;;;;;;;;;;28.57;35.28;100904.58;104765;1302;61253;-82
2022/07/04 09:53:45;;;;;;;;;;;;;;;28.58;35.45;100901.09;104989;1303;61141;-81
2022/07/04 09:56:11;;;;;;;;;;;;;;;28.57;35.18;100894.60;105047;1302;61199;-82
2022/07/04 09:58:37;;;;;;;;;;;;;;;28.58;35.61;100893.04;104759;1302;61361;-82
2022/07/04 10:01:02;;;;;;;;;;;;;;;28.58;35.46;100891.61;104933;1303;61952;-83
2022/07/04 10:03:29;;;;;;;;;;;;;;;28.58;35.52;100888.52;104903;1302;61281;-82
2022/07/04 10:06:11;;;;;;;;;;;;;;;28.59;35.61;100883.08;104965;1302;61285;-82
2022/07/04 10:08:38;;;;;;;;;;;;;;;28.60;35.36;100883.52;104918;1302;73856;-82
2022/07/04 10:11:04;;;;;;;;;;;;;;;28.60;35.56;100884.71;105072;1302;61271;-82
2022/07/04 10:13:30;;;;;;;;;;;;;;;28.60;35.43;100882.38;104967;1301;61272;-81
2022/07/04 10:15:56;;;;;;;;;;;;;;;28.60;35.51;100882.95;105035;1302;61198;-82
2022/07/04 10:18:22;;;;;;;;;;;;;;;28.60;35.45;100881.35;104725;1301;61269;-82
2022/07/04 10:20:50;;;;;;;;;;;;;;;28.59;35.49;100883.02;104721;1303;61258;-82
2022/07/04 10:23:16;;;;;;;;;;;;;;;28.59;35.54;100880.86;104877;1302;61438;-82
2022/07/04 10:25:41;;;;;;;;;;;;;;;28.60;35.81;100882.41;104827;1302;61269;-81
2022/07/04 10:28:07;;;;;;;;;;;;;;;28.60;35.68;100881.15;104861;1301;61313;-82
2022/07/04 10:30:34;;;;;;;;;;;;;;;28.59;35.52;100878.63;104702;1302;61230;-82
2022/07/04 10:33:00;;;;;;;;;;;;;;;28.60;35.74;100880.40;104956;1302;61319;-82
2022/07/04 10:35:45;;;;;;;;;;;;;;;28.60;35.52;100879.99;104797;1302;61290;-82
2022/07/04 10:38:12;;;;;;;;;;;;;;;28.61;35.43;100877.23;104934;1301;73916;-82
2022/07/04 10:40:46;;;;;;;;;;;;;;;28.61;35.65;100875.82;104986;1302;61367;-82
2022/07/04 10:43:41;;;;;;;;;;;;;;;28.61;35.81;100870.15;104981;1302;61163;-82
2022/07/04 10:46:14;;;;;;;;;;;;;;;28.60;35.54;100866.95;105006;1303;61902;-81
2022/07/04 10:48:53;;;;;;;;;;;;;;;28.60;35.66;100862.08;105074;1302;61328;-81
2022/07/04 10:51:41;;;;;;;;;;;;;;;28.60;35.76;100861.15;105057;1303;74789;-82
2022/07/04 10:54:32;;;;;;;;;;;;;;;28.61;35.78;100850.29;105154;1301;61538;-82
2022/07/04 10:57:20;;;;;;;;;;;;;;;28.61;35.66;100848.30;104542;1308;61175;-82
2022/07/04 10:59:55;;;;;;;;;;;;;;;28.60;35.67;100843.98;104423;1308;74005;-82
2022/07/04 11:02:30;;;;;;;;;;;;;;;28.60;35.65;100842.35;104395;1307;76008;-82
2022/07/04 11:04:56;;;;;;;;;;;;;;;28.61;35.67;100843.77;104482;1307;61263;-82
2022/07/04 11:07:22;;;;;;;;;;;;;;;28.61;36.02;100833.41;104482;1307;61303;-83
2022/07/04 11:10:07;;;;;;;;;;;;;;;28.61;35.74;100830.30;104463;1308;61221;-83
2022/07/04 11:12:33;;;;;;;;;;;;;;;28.62;35.91;100824.14;104530;1309;75533;-82
2022/07/04 11:14:58;;;;;;;;;;;;;;;28.62;35.79;100823.38;104515;1308;62299;-82
2022/07/04 11:17:32;;;;;;;;;;;;;;;28.61;35.90;100822.14;104517;1308;61286;-81
2022/07/04 11:19:59;;;;;;;;;;;;;;;28.62;35.89;100827.56;104468;1307;73742;-83
2022/07/04 11:22:24;;;;;;;;;;;;;;;28.60;35.90;100827.69;104628;1307;61415;-83
2022/07/04 11:24:50;;;;;;;;;;;;;;;28.60;36.28;100824.30;104562;1307;61289;-83
2022/07/04 11:27:15;;;;;;;;;;;;;;;28.59;36.25;100823.77;104439;1308;61274;-83
2022/07/04 11:29:54;;;;;;;;;;;;;;;28.60;36.12;100816.31;104583;1306;61234;-83
2022/07/04 11:32:20;;;;;;;;;;;;;;;28.60;36.07;100813.96;104569;1308;75874;-83
2022/07/04 11:34:46;;;;;;;;;;;;;;;28.60;36.32;100815.39;104987;1301;61358;-83
2022/07/04 11:37:12;;;;;;;;;;;;;;;28.60;36.04;100816.10;105229;1302;61328;-82
2022/07/04 11:39:37;;;;;;;;;;;;;;;28.60;36.17;100815.77;105029;1303;61154;-82
2022/07/04 11:45:02;;;;;;;;;;;;;;;28.61;36.24;100813.70;105080;1302;61093;-82
2022/07/04 11:47:37;;;;;;;;;;;;;;;28.61;36.15;100813.66;105209;1303;61150;-81
2022/07/04 11:50:04;;;;;;;;;;;;;;;28.62;36.20;100813.09;105119;1302;73590;-81
2022/07/04 11:52:51;;;;;;;;;;;;;;;28.62;36.46;100815.09;104844;1302;75769;-81
2022/07/04 11:55:17;;;;;;;;;;;;;;;28.62;36.31;100813.46;105082;1302;61179;-82
2022/07/04 11:57:50;;;;;;;;;;;;;;;28.63;36.05;100814.73;104939;1302;61312;-82
2022/07/04 12:00:17;;;;;;;;;;;;;;;28.63;36.21;100811.46;104989;1302;73707;-82
2022/07/04 12:02:48;;;;;;;;;;;;;;;28.64;36.30;100807.09;105223;1303;75670;-81
2022/07/04 12:05:14;;;;;;;;;;;;;;;28.65;36.23;100811.55;105193;1300;61161;-81
2022/07/04 12:07:40;;;;;;;;;;;;;;;28.65;36.07;100811.35;105110;1302;61199;-82
2022/07/04 12:10:07;;;;;;;;;;;;;;;28.65;36.22;100808.93;105161;1302;61364;-82
2022/07/04 12:12:32;;;;;;;;;;;;;;;28.66;36.32;100802.48;105004;1302;61456;-81
2022/07/04 12:14:58;;;;;;;;;;;;;;;28.67;36.28;100806.37;105160;1303;59420;-81
2022/07/04 12:17:28;;;;;;;;;;;;;;;28.68;36.31;100809.59;105251;1303;61364;-81
2022/07/04 12:19:54;;;;;;;;;;;;;;;28.67;36.10;100804.23;104969;1302;73883;-81
2022/07/04 12:22:30;;;;;;;;;;;;;;;28.67;35.98;100794.94;105055;1301;61152;-82
2022/07/04 12:24:57;;;;;;;;;;;;;;;28.68;36.23;100794.39;105032;1302;61288;-81
2022/07/04 12:27:23;;;;;;;;;;;;;;;28.67;36.18;100792.12;104934;1302;61264;-81
2022/07/04 12:29:49;;;;;;;;;;;;;;;28.68;36.05;100791.67;104930;1302;61154;-81
2022/07/04 12:32:14;;;;;;;;;;;;;;;28.67;36.14;100794.96;104893;1303;61262;-81
2022/07/04 12:34:39;;;;;;;;;;;;;;;28.67;36.39;100784.27;105068;1302;61275;-82
2022/07/04 12:37:06;;;;;;;;;;;;;;;28.68;36.44;100785.69;104886;1302;62332;-82
2022/07/04 12:39:31;;;;;;;;;;;;;;;28.68;36.13;100782.98;104976;1302;61613;-82
2022/07/04 12:42:03;;;;;;;;;;;;;;;28.68;36.31;100778.63;105136;1302;61388;-82